Impacts TAF Board
For situational awareness. Not to be used for flight planning purposes.
IDs:

KSGR - Houston/Sugar Land R, TX, US

Issued at 0520 UTC 19 Aug 2019
Updated at 0628 UTC 19 Aug 2019
Potential Impact None Slight Moderate High
Time0553Z 19/07Z 19/08Z 19/09Z 19/10Z 19/11Z 19/12Z 19/13Z 19/14Z 19/15Z 19/16Z 19/17Z 19/18Z 19/19Z>>
Type OBS PRVL PRVL PRVL PRVL PRVL PRVL PRVL PRVL PRVL PRVL PRVL PRVL PRVL
VIS 10 >6 >6 >6 >6 >6 >6 >6 >6 >6 >6 >6 >6 >6
CIG -- -- -- -- -- -- -- -- -- -- -- -- -- --
Cover CLR SKC SKC SKC SKC SCT SCT SCT SCT SCT SCT SCT SCT SCT
FltCat VFR VFR VFR VFR VFR VFR VFR VFR VFR VFR VFR VFR VFR VFR
WX -- -- -- -- -- -- -- -- -- -- -- -- VCSH VCSH
WDir 170 180 180 180 180 160 160 160 160 190 190 190 170 170
WSpd 8 6 6 6 6 3 3 3 3 8 8 8 9 9
WGst -- -- -- -- -- -- -- -- -- -- -- -- -- --
Raw TAF
KSGR 190520Z 1906/2006 18006KT P6SM SKC
  FM191100 16003KT P6SM SCT025 SCT250
  FM191500 19008KT P6SM SCT035
  FM191800 17009KT P6SM VCSH SCT050
  FM200000 17007KT P6SM FEW045


Raw METAR
KSGR 190553Z AUTO 17008KT 10SM CLR 27/26 A2993 RMK AO2 SLP135 T02670256 10328 20267 403500250 50006 $
KSGR 190453Z AUTO 17006KT 10SM CLR 27/26 A2993 RMK AO2 SLP136 T02670256 $
KSGR 190353Z AUTO 16006KT 10SM CLR 28/26 A2993 RMK AO2 SLP135 T02780256 $

METAR Board
Radar Display
Forecast Discussion
For situational awareness. Not to be used for flight planning purposes.